Time;durP1;ratioP1;P1;durP2;ratioP2;P2;SDS_P1;SDS_P2;PMS_P1;PMS_P2;Temp;Humidity;BMP_temperature;BMP_pressure;BME280_temperature;BME280_humidity;BME280_pressure;Samples;Min_cycle;Max_cycle;Signal;HPM_P1;HPM_P2
2023/07/12 00:00:42;;;;;;;12.52;6.65;;;;;;;;;;5046074;28;20049;-71
2023/07/12 00:03:08;;;;;;;18.15;6.85;;;;;;;;;;5043935;28;20500;-72
2023/07/12 00:05:35;;;;;;;18.13;6.32;;;;;;;;;;5043823;28;20036;-70
2023/07/12 00:08:01;;;;;;;13.68;5.97;;;;;;;;;;5046223;28;20029;-70
2023/07/12 00:10:30;;;;;;;17.35;6.10;;;;;;;;;;5027918;28;20036;-71
2023/07/12 00:12:56;;;;;;;13.55;5.10;;;;;;;;;;5045530;28;20025;-70
2023/07/12 00:15:26;;;;;;;10.07;4.72;;;;;;;;;;5049365;28;20037;-71
2023/07/12 00:17:53;;;;;;;12.93;5.43;;;;;;;;;;5044817;28;20029;-72
2023/07/12 00:20:22;;;;;;;16.77;5.72;;;;;;;;;;5037023;28;20463;-71
2023/07/12 00:22:50;;;;;;;14.02;6.32;;;;;;;;;;5041886;28;20064;-71
2023/07/12 00:25:17;;;;;;;17.35;7.53;;;;;;;;;;5041714;28;20043;-71
2023/07/12 00:27:44;;;;;;;17.63;8.25;;;;;;;;;;5026795;28;20029;-71
2023/07/12 00:30:16;;;;;;;19.17;8.55;;;;;;;;;;5046057;28;20537;-71
2023/07/12 00:32:42;;;;;;;21.02;8.63;;;;;;;;;;5025760;28;20048;-71
2023/07/12 00:35:09;;;;;;;20.90;8.80;;;;;;;;;;5044460;28;20029;-71
2023/07/12 00:37:36;;;;;;;22.17;8.65;;;;;;;;;;5027209;28;20032;-70
2023/07/12 00:40:02;;;;;;;24.50;9.02;;;;;;;;;;5044072;28;20029;-71
2023/07/12 00:42:31;;;;;;;22.90;8.48;;;;;;;;;;5040620;28;20033;-72
2023/07/12 00:44:58;;;;;;;19.00;7.75;;;;;;;;;;5041842;28;20029;-70
2023/07/12 00:47:24;;;;;;;16.00;7.35;;;;;;;;;;5020132;28;20034;-73
2023/07/12 00:49:53;;;;;;;18.73;7.00;;;;;;;;;;5029161;28;20041;-71
2023/07/12 00:52:21;;;;;;;17.80;7.30;;;;;;;;;;5031763;28;20029;-71
2023/07/12 00:55:00;;;;;;;18.58;5.88;;;;;;;;;;5031338;28;20104;-71
2023/07/12 00:57:27;;;;;;;14.77;5.88;;;;;;;;;;5028631;28;20747;-71
2023/07/12 00:59:54;;;;;;;19.83;6.00;;;;;;;;;;5035094;28;20025;-70
2023/07/12 01:02:23;;;;;;;12.13;5.68;;;;;;;;;;5040782;28;20063;-71
2023/07/12 01:04:50;;;;;;;18.38;6.05;;;;;;;;;;5031759;28;20155;-70
2023/07/12 01:07:18;;;;;;;21.63;6.78;;;;;;;;;;5047926;28;20033;-70
2023/07/12 01:09:44;;;;;;;19.25;7.07;;;;;;;;;;5050810;28;20095;-70
2023/07/12 01:12:11;;;;;;;19.50;7.53;;;;;;;;;;5012569;28;20032;-72
2023/07/12 01:14:38;;;;;;;20.52;7.43;;;;;;;;;;5047126;28;20045;-72
2023/07/12 01:17:06;;;;;;;22.08;6.88;;;;;;;;;;5031194;28;20039;-72
2023/07/12 01:19:33;;;;;;;22.20;6.75;;;;;;;;;;5045394;28;20060;-71
2023/07/12 01:22:00;;;;;;;22.70;7.63;;;;;;;;;;5049656;28;20186;-71
2023/07/12 01:24:27;;;;;;;23.88;8.48;;;;;;;;;;5032261;28;20168;-71
2023/07/12 01:26:58;;;;;;;24.25;7.47;;;;;;;;;;5048123;28;20131;-72
2023/07/12 01:29:25;;;;;;;28.30;8.93;;;;;;;;;;5049006;28;20529;-72
2023/07/12 01:31:52;;;;;;;21.90;7.95;;;;;;;;;;5042773;28;20116;-71
2023/07/12 01:34:18;;;;;;;19.98;7.65;;;;;;;;;;5048008;28;20024;-72
2023/07/12 01:36:45;;;;;;;22.92;7.97;;;;;;;;;;5033957;28;20159;-71
2023/07/12 01:39:11;;;;;;;17.65;6.60;;;;;;;;;;5048369;28;20033;-72
2023/07/12 01:41:37;;;;;;;18.70;7.25;;;;;;;;;;5012773;28;20052;-71
2023/07/12 01:44:04;;;;;;;22.98;7.20;;;;;;;;;;5017940;28;20037;-71
2023/07/12 01:46:31;;;;;;;21.38;7.95;;;;;;;;;;5047850;28;20041;-72
2023/07/12 01:48:57;;;;;;;29.58;7.63;;;;;;;;;;5014903;28;20029;-72
2023/07/12 01:51:24;;;;;;;24.27;7.70;;;;;;;;;;5050119;28;20028;-73
2023/07/12 01:53:51;;;;;;;25.15;7.97;;;;;;;;;;5032983;28;20037;-72
2023/07/12 01:56:18;;;;;;;26.80;7.95;;;;;;;;;;5034026;28;20167;-72
2023/07/12 01:58:44;;;;;;;29.65;7.88;;;;;;;;;;5031097;28;20032;-72
2023/07/12 02:01:10;;;;;;;22.80;7.57;;;;;;;;;;5029092;28;20040;-72
2023/07/12 02:03:36;;;;;;;27.42;8.18;;;;;;;;;;5024043;28;20041;-71
2023/07/12 02:06:02;;;;;;;28.40;7.78;;;;;;;;;;5033578;28;20098;-72
2023/07/12 02:08:29;;;;;;;22.48;7.78;;;;;;;;;;5040617;28;20041;-72
2023/07/12 02:10:55;;;;;;;21.63;7.95;;;;;;;;;;5051547;28;20433;-71
2023/07/12 02:13:22;;;;;;;28.27;9.40;;;;;;;;;;5015758;28;20555;-70
2023/07/12 02:15:48;;;;;;;27.25;8.73;;;;;;;;;;5034280;28;20041;-72
2023/07/12 02:18:14;;;;;;;25.55;8.52;;;;;;;;;;5047896;28;20083;-71
2023/07/12 02:20:43;;;;;;;23.60;7.57;;;;;;;;;;5045264;28;20025;-71
2023/07/12 02:23:10;;;;;;;28.58;8.63;;;;;;;;;;5045930;28;20031;-71
2023/07/12 02:25:37;;;;;;;27.30;7.30;;;;;;;;;;5051479;28;20037;-72
2023/07/12 02:28:04;;;;;;;27.98;7.63;;;;;;;;;;5049666;28;20036;-72
2023/07/12 02:30:31;;;;;;;30.90;8.32;;;;;;;;;;5050782;28;20083;-71
2023/07/12 02:32:58;;;;;;;29.83;8.00;;;;;;;;;;5028416;28;20047;-71
2023/07/12 02:35:27;;;;;;;28.10;7.13;;;;;;;;;;5021784;28;20433;-71
2023/07/12 02:37:54;;;;;;;27.10;7.72;;;;;;;;;;5049505;28;20040;-70
2023/07/12 02:40:20;;;;;;;33.45;7.60;;;;;;;;;;5033493;28;20051;-71
2023/07/12 02:42:46;;;;;;;24.13;8.55;;;;;;;;;;5049143;28;20031;-71
2023/07/12 02:45:12;;;;;;;25.95;7.28;;;;;;;;;;5016182;28;20144;-71
2023/07/12 02:47:39;;;;;;;31.95;8.63;;;;;;;;;;5031407;28;20058;-72
2023/07/12 02:50:05;;;;;;;29.90;8.50;;;;;;;;;;5031431;28;20025;-71
2023/07/12 02:52:31;;;;;;;27.05;8.00;;;;;;;;;;5048744;28;20112;-70
2023/07/12 02:54:58;;;;;;;32.42;8.30;;;;;;;;;;5033656;28;20048;-70
2023/07/12 02:57:24;;;;;;;27.98;8.90;;;;;;;;;;5049638;28;20405;-70
2023/07/12 02:59:50;;;;;;;35.65;7.82;;;;;;;;;;5032418;28;20174;-69
2023/07/12 03:02:16;;;;;;;28.90;7.47;;;;;;;;;;5048604;28;20040;-70
2023/07/12 03:04:42;;;;;;;27.52;7.55;;;;;;;;;;5046649;28;20079;-69
2023/07/12 03:07:09;;;;;;;24.63;7.20;;;;;;;;;;5032069;28;20044;-70
2023/07/12 03:09:35;;;;;;;26.20;7.38;;;;;;;;;;5031779;28;20037;-71
2023/07/12 03:12:01;;;;;;;24.23;7.45;;;;;;;;;;5029790;28;20029;-70
2023/07/12 03:14:28;;;;;;;22.48;6.63;;;;;;;;;;5050787;28;20178;-69
2023/07/12 03:16:54;;;;;;;23.90;7.45;;;;;;;;;;5048811;28;20024;-70
2023/07/12 03:19:20;;;;;;;27.95;8.82;;;;;;;;;;5042459;28;20041;-69
2023/07/12 03:21:46;;;;;;;29.65;9.20;;;;;;;;;;5049428;28;20075;-70
2023/07/12 03:24:13;;;;;;;22.55;8.30;;;;;;;;;;5048377;28;20040;-71
2023/07/12 03:26:39;;;;;;;29.88;9.30;;;;;;;;;;5049609;28;20043;-71
2023/07/12 03:29:06;;;;;;;30.00;10.82;;;;;;;;;;5049475;28;20028;-70
2023/07/12 03:31:32;;;;;;;33.78;11.82;;;;;;;;;;5049244;28;20098;-70
2023/07/12 03:33:59;;;;;;;28.65;12.85;;;;;;;;;;5046792;28;20029;-70
2023/07/12 03:36:28;;;;;;;30.13;12.55;;;;;;;;;;5048784;28;20029;-70
2023/07/12 03:38:54;;;;;;;33.45;13.30;;;;;;;;;;5048692;28;20039;-70
2023/07/12 03:41:21;;;;;;;32.38;14.57;;;;;;;;;;5049585;28;20449;-70
2023/07/12 03:43:47;;;;;;;32.42;13.95;;;;;;;;;;5048617;28;20049;-70
2023/07/12 03:46:13;;;;;;;33.92;14.55;;;;;;;;;;5047177;28;20053;-69
2023/07/12 03:48:40;;;;;;;30.48;13.23;;;;;;;;;;5047344;28;20137;-69
2023/07/12 03:51:06;;;;;;;32.05;13.98;;;;;;;;;;5049639;28;20029;-70
2023/07/12 03:53:32;;;;;;;34.17;13.38;;;;;;;;;;5048091;28;20285;-71
2023/07/12 03:56:03;;;;;;;31.05;12.73;;;;;;;;;;5046859;28;20105;-68
2023/07/12 03:58:33;;;;;;;27.52;11.77;;;;;;;;;;5047936;28;20075;-71
2023/07/12 04:01:01;;;;;;;32.92;10.77;;;;;;;;;;5030160;28;20087;-69
2023/07/12 04:03:28;;;;;;;28.92;10.55;;;;;;;;;;5046545;28;20086;-69
2023/07/12 04:05:54;;;;;;;23.65;10.38;;;;;;;;;;5048839;28;20123;-69
2023/07/12 04:08:20;;;;;;;27.98;10.35;;;;;;;;;;5047267;28;20109;-69
2023/07/12 04:10:50;;;;;;;28.55;10.45;;;;;;;;;;5047707;28;20032;-70
2023/07/12 04:13:16;;;;;;;29.90;9.88;;;;;;;;;;5047601;28;20040;-70
2023/07/12 04:15:43;;;;;;;24.13;10.45;;;;;;;;;;5048018;28;20041;-69
2023/07/12 04:18:09;;;;;;;22.23;10.68;;;;;;;;;;5048078;28;20091;-70
2023/07/12 04:20:39;;;;;;;28.75;10.85;;;;;;;;;;5021066;28;20041;-69
2023/07/12 04:23:05;;;;;;;25.83;10.65;;;;;;;;;;5043757;28;20040;-70
2023/07/12 04:25:32;;;;;;;26.08;10.40;;;;;;;;;;5048168;28;20115;-69
2023/07/12 04:27:58;;;;;;;27.13;11.13;;;;;;;;;;5047374;28;20063;-70
2023/07/12 04:30:24;;;;;;;25.67;11.55;;;;;;;;;;5027915;28;20029;-70
2023/07/12 04:32:52;;;;;;;26.30;11.25;;;;;;;;;;5048186;28;20029;-70
2023/07/12 04:35:18;;;;;;;26.77;12.10;;;;;;;;;;5047146;28;20091;-70
2023/07/12 04:37:45;;;;;;;32.67;13.75;;;;;;;;;;5030068;28;20052;-69
2023/07/12 04:40:12;;;;;;;30.20;12.57;;;;;;;;;;5032359;28;20041;-69
2023/07/12 04:42:39;;;;;;;33.63;12.88;;;;;;;;;;5046175;28;20111;-68
2023/07/12 04:45:05;;;;;;;29.10;12.02;;;;;;;;;;5046625;28;20063;-69
2023/07/12 04:47:31;;;;;;;30.92;12.57;;;;;;;;;;5046237;28;20025;-68
2023/07/12 04:49:57;;;;;;;33.58;13.20;;;;;;;;;;5047191;28;20052;-69
2023/07/12 04:52:23;;;;;;;27.75;12.20;;;;;;;;;;5028969;28;20025;-69
2023/07/12 04:54:49;;;;;;;31.15;12.63;;;;;;;;;;5048847;28;20047;-69
2023/07/12 04:57:16;;;;;;;28.65;12.00;;;;;;;;;;5047885;28;20041;-69
2023/07/12 04:59:42;;;;;;;25.70;13.90;;;;;;;;;;5046976;28;20055;-71
2023/07/12 05:02:08;;;;;;;33.67;13.98;;;;;;;;;;5043855;28;20033;-70
2023/07/12 05:04:35;;;;;;;24.33;13.70;;;;;;;;;;5047467;28;20029;-69
2023/07/12 05:07:01;;;;;;;33.58;15.27;;;;;;;;;;5048133;28;20114;-68
2023/07/12 05:09:28;;;;;;;31.25;13.70;;;;;;;;;;5042847;28;20057;-69
2023/07/12 05:11:54;;;;;;;25.98;12.57;;;;;;;;;;5043162;28;20209;-69
2023/07/12 05:14:20;;;;;;;29.60;11.65;;;;;;;;;;5046266;28;20482;-69
2023/07/12 05:16:46;;;;;;;28.92;13.25;;;;;;;;;;5048794;28;20087;-68
2023/07/12 05:19:12;;;;;;;27.17;13.30;;;;;;;;;;5033790;28;20095;-68
2023/07/12 05:21:38;;;;;;;24.83;13.40;;;;;;;;;;5029161;28;20037;-68
2023/07/12 05:24:05;;;;;;;29.52;12.60;;;;;;;;;;5028635;28;20096;-68
2023/07/12 05:26:31;;;;;;;26.65;11.10;;;;;;;;;;5048111;28;20076;-69
2023/07/12 05:28:57;;;;;;;24.52;11.40;;;;;;;;;;5029553;28;20044;-69
2023/07/12 05:31:23;;;;;;;29.67;10.60;;;;;;;;;;5046790;28;20033;-68
2023/07/12 05:33:49;;;;;;;28.42;11.57;;;;;;;;;;5045907;28;20387;-68
2023/07/12 05:36:15;;;;;;;25.80;10.35;;;;;;;;;;5047970;28;20486;-68
2023/07/12 05:38:42;;;;;;;20.80;10.10;;;;;;;;;;5046775;28;20048;-68
2023/07/12 05:41:08;;;;;;;24.05;10.30;;;;;;;;;;5051601;28;20021;-68
2023/07/12 05:43:34;;;;;;;37.67;9.15;;;;;;;;;;5048789;28;20037;-68
2023/07/12 05:46:01;;;;;;;23.70;9.27;;;;;;;;;;5014286;28;20059;-68
2023/07/12 05:48:27;;;;;;;17.35;8.68;;;;;;;;;;5050605;28;20041;-69
2023/07/12 05:50:54;;;;;;;22.63;10.95;;;;;;;;;;5042803;28;20444;-69
2023/07/12 05:53:21;;;;;;;20.48;8.65;;;;;;;;;;5047511;28;20025;-70
2023/07/12 05:55:47;;;;;;;19.55;9.60;;;;;;;;;;5031206;28;20032;-69
2023/07/12 05:58:15;;;;;;;21.05;9.65;;;;;;;;;;5049745;28;20029;-68
2023/07/12 06:00:41;;;;;;;25.13;10.07;;;;;;;;;;5028949;28;20048;-69
2023/07/12 06:03:11;;;;;;;24.00;10.02;;;;;;;;;;5047853;28;20801;-69
2023/07/12 06:05:40;;;;;;;25.27;10.82;;;;;;;;;;5047853;28;20355;-70
2023/07/12 06:08:07;;;;;;;24.25;10.48;;;;;;;;;;5049424;28;20063;-69
2023/07/12 06:10:33;;;;;;;25.30;10.60;;;;;;;;;;5031418;28;20029;-69
2023/07/12 06:12:59;;;;;;;28.25;10.35;;;;;;;;;;5016869;28;20036;-68
2023/07/12 06:15:27;;;;;;;26.50;11.98;;;;;;;;;;5050469;28;20037;-69
2023/07/12 06:17:54;;;;;;;28.05;10.63;;;;;;;;;;5030184;28;20033;-69
2023/07/12 06:20:20;;;;;;;25.42;10.35;;;;;;;;;;5048927;28;20070;-71
2023/07/12 06:22:46;;;;;;;28.13;11.02;;;;;;;;;;5033464;28;20457;-69
2023/07/12 06:25:13;;;;;;;26.45;10.43;;;;;;;;;;5049386;28;20108;-68
2023/07/12 06:27:39;;;;;;;25.17;10.20;;;;;;;;;;5033039;28;20037;-68
2023/07/12 06:30:06;;;;;;;30.33;10.18;;;;;;;;;;5045643;28;20026;-68
2023/07/12 06:32:32;;;;;;;22.60;8.40;;;;;;;;;;5030051;28;20127;-68
2023/07/12 06:34:58;;;;;;;22.25;8.80;;;;;;;;;;5047866;28;20099;-69
2023/07/12 06:37:24;;;;;;;22.10;8.63;;;;;;;;;;5049646;28;20112;-69
2023/07/12 06:39:50;;;;;;;21.73;7.95;;;;;;;;;;5049113;28;20170;-69
2023/07/12 06:42:17;;;;;;;18.52;8.55;;;;;;;;;;5011883;28;20112;-70
2023/07/12 06:44:45;;;;;;;23.05;7.97;;;;;;;;;;5007795;28;20036;-69
2023/07/12 06:47:11;;;;;;;25.58;7.78;;;;;;;;;;5042240;28;20064;-68
2023/07/12 06:49:38;;;;;;;19.13;7.55;;;;;;;;;;5050042;28;20455;-68
2023/07/12 06:52:04;;;;;;;25.98;7.90;;;;;;;;;;5049607;28;20029;-69
2023/07/12 06:54:31;;;;;;;17.85;6.85;;;;;;;;;;5047609;28;20037;-69
2023/07/12 06:56:57;;;;;;;28.08;7.85;;;;;;;;;;5048202;28;20037;-70
2023/07/12 06:59:24;;;;;;;18.58;6.80;;;;;;;;;;5050666;28;20101;-70
2023/07/12 07:01:50;;;;;;;25.10;6.65;;;;;;;;;;5039930;28;20061;-70
2023/07/12 07:04:16;;;;;;;20.15;6.53;;;;;;;;;;5049520;28;20040;-70
2023/07/12 07:06:42;;;;;;;20.25;6.40;;;;;;;;;;5040052;28;20043;-69
2023/07/12 07:09:08;;;;;;;17.90;5.70;;;;;;;;;;5036326;28;20032;-70
2023/07/12 07:11:35;;;;;;;24.08;5.70;;;;;;;;;;5042159;28;20032;-69
2023/07/12 07:14:01;;;;;;;19.90;5.05;;;;;;;;;;5021928;28;20068;-69
2023/07/12 07:16:27;;;;;;;20.23;4.95;;;;;;;;;;5037326;28;20382;-69
2023/07/12 07:18:54;;;;;;;14.95;3.72;;;;;;;;;;5043198;28;20180;-71
2023/07/12 07:21:20;;;;;;;16.15;4.30;;;;;;;;;;5039424;28;20047;-70
2023/07/12 07:23:46;;;;;;;20.95;4.65;;;;;;;;;;5034230;28;20356;-70
2023/07/12 07:26:12;;;;;;;14.77;4.07;;;;;;;;;;5033376;28;20156;-70
2023/07/12 07:28:39;;;;;;;14.65;4.10;;;;;;;;;;5031324;28;20034;-71
2023/07/12 07:31:06;;;;;;;22.00;5.45;;;;;;;;;;5037810;28;20040;-71
2023/07/12 07:33:33;;;;;;;16.63;4.43;;;;;;;;;;5041904;28;20604;-69
2023/07/12 07:35:59;;;;;;;18.08;4.88;;;;;;;;;;5037610;28;20104;-69
2023/07/12 07:38:28;;;;;;;18.65;4.28;;;;;;;;;;5036075;28;20024;-70
2023/07/12 07:40:56;;;;;;;18.70;4.60;;;;;;;;;;5039839;28;20067;-70
2023/07/12 07:43:22;;;;;;;13.43;4.43;;;;;;;;;;5018539;28;20479;-69
2023/07/12 07:45:48;;;;;;;15.68;4.05;;;;;;;;;;5036061;28;20064;-70
2023/07/12 07:48:15;;;;;;;12.43;3.90;;;;;;;;;;5040163;28;20044;-71
2023/07/12 07:50:44;;;;;;;16.23;3.90;;;;;;;;;;5028741;28;20061;-71
2023/07/12 07:53:11;;;;;;;13.70;3.78;;;;;;;;;;5034350;28;20509;-70
2023/07/12 07:55:44;;;;;;;13.00;3.10;;;;;;;;;;5039131;28;20074;-70
2023/07/12 07:58:11;;;;;;;16.52;3.22;;;;;;;;;;5036850;28;20045;-71
2023/07/12 08:00:38;;;;;;;16.52;3.72;;;;;;;;;;5027193;28;20043;-71
2023/07/12 08:03:04;;;;;;;16.77;3.65;;;;;;;;;;5034003;28;20036;-72
2023/07/12 08:05:30;;;;;;;16.63;3.38;;;;;;;;;;5033137;28;20060;-70
2023/07/12 08:07:57;;;;;;;13.65;2.90;;;;;;;;;;5031910;28;20509;-71
2023/07/12 08:10:23;;;;;;;16.45;3.55;;;;;;;;;;5032676;28;20041;-69
2023/07/12 08:12:49;;;;;;;18.77;4.32;;;;;;;;;;5065446;28;20078;-73
2023/07/12 08:15:15;;;;;;;13.60;3.15;;;;;;;;;;5049674;28;20033;-70
2023/07/12 08:17:43;;;;;;;14.15;3.22;;;;;;;;;;5044646;28;20059;-71
2023/07/12 08:20:09;;;;;;;14.00;3.45;;;;;;;;;;5064670;28;20036;-72
2023/07/12 08:22:35;;;;;;;13.15;3.45;;;;;;;;;;5039160;28;20564;-71
2023/07/12 08:25:02;;;;;;;10.82;3.60;;;;;;;;;;5043442;28;20032;-70
2023/07/12 08:27:30;;;;;;;16.58;3.40;;;;;;;;;;5046416;28;20029;-73
2023/07/12 08:29:58;;;;;;;31.85;4.15;;;;;;;;;;5040731;28;20040;-73
2023/07/12 08:32:27;;;;;;;15.73;4.22;;;;;;;;;;5040539;28;20052;-74
2023/07/12 08:34:54;;;;;;;18.33;5.18;;;;;;;;;;5049197;28;20090;-74
2023/07/12 08:37:20;;;;;;;19.30;5.47;;;;;;;;;;5038283;28;20041;-74
2023/07/12 08:39:46;;;;;;;20.85;5.65;;;;;;;;;;5063599;28;20033;-72
2023/07/12 08:42:18;;;;;;;32.35;6.78;;;;;;;;;;5058200;28;20037;-71
2023/07/12 08:44:44;;;;;;;23.65;5.10;;;;;;;;;;5055282;28;20029;-72
2023/07/12 08:47:16;;;;;;;21.25;3.67;;;;;;;;;;5056885;28;20473;-73
2023/07/12 08:49:42;;;;;;;14.85;3.78;;;;;;;;;;5040703;28;20037;-72
2023/07/12 08:52:13;;;;;;;14.25;3.00;;;;;;;;;;5046418;28;20033;-72
2023/07/12 08:54:39;;;;;;;15.95;3.75;;;;;;;;;;5041355;28;20025;-71
2023/07/12 08:57:18;;;;;;;10.73;2.95;;;;;;;;;;5041296;28;20131;-72
2023/07/12 08:59:46;;;;;;;12.13;2.92;;;;;;;;;;5044504;28;20111;-71
2023/07/12 09:02:23;;;;;;;12.38;3.00;;;;;;;;;;5042301;28;20021;-71
2023/07/12 09:04:50;;;;;;;14.95;2.92;;;;;;;;;;5042841;28;20032;-72
2023/07/12 09:07:27;;;;;;;10.00;2.92;;;;;;;;;;5039794;28;20033;-71
2023/07/12 09:09:55;;;;;;;11.90;2.85;;;;;;;;;;5041383;28;20029;-71
2023/07/12 09:12:27;;;;;;;10.18;2.58;;;;;;;;;;5036214;28;20029;-72
2023/07/12 09:15:00;;;;;;;12.60;3.35;;;;;;;;;;5039332;28;20490;-71
2023/07/12 09:17:27;;;;;;;14.73;2.80;;;;;;;;;;5043624;28;20064;-70
2023/07/12 09:19:54;;;;;;;15.32;3.25;;;;;;;;;;5046158;28;20071;-71
2023/07/12 09:22:22;;;;;;;13.27;3.10;;;;;;;;;;5042320;28;20090;-71
2023/07/12 09:24:55;;;;;;;14.23;3.63;;;;;;;;;;5045095;28;20044;-71
2023/07/12 09:27:23;;;;;;;12.52;2.95;;;;;;;;;;5062129;28;20036;-71
2023/07/12 09:29:58;;;;;;;11.68;2.78;;;;;;;;;;5058602;28;20041;-72
2023/07/12 09:32:29;;;;;;;12.60;2.60;;;;;;;;;;5041789;28;20021;-71
2023/07/12 09:34:55;;;;;;;12.35;2.75;;;;;;;;;;5043091;28;20039;-72
2023/07/12 09:37:23;;;;;;;8.43;2.30;;;;;;;;;;5044186;28;20029;-69
2023/07/12 09:39:59;;;;;;;13.43;2.75;;;;;;;;;;5059272;28;20025;-71
2023/07/12 09:42:26;;;;;;;8.80;2.53;;;;;;;;;;5045409;28;20148;-71
2023/07/12 09:44:52;;;;;;;9.95;2.50;;;;;;;;;;5039197;28;20029;-72
2023/07/12 09:47:22;;;;;;;7.18;2.10;;;;;;;;;;5041690;28;20624;-71
2023/07/12 09:49:52;;;;;;;16.63;2.70;;;;;;;;;;5037626;28;20047;-71
2023/07/12 09:52:18;;;;;;;;;;;;;;;;;;5041332;28;20112;-69
2023/07/12 09:54:58;;;;;;;8.05;2.38;;;;;;;;;;5044464;28;19964;-71
2023/07/12 09:57:43;;;;;;;9.60;2.38;;;;;;;;;;5043351;28;20037;-70
2023/07/12 10:00:30;;;;;;;9.48;2.92;;;;;;;;;;5046165;28;20033;-69
2023/07/12 10:03:15;;;;;;;11.77;3.25;;;;;;;;;;5045265;28;20029;-70
2023/07/12 10:06:01;;;;;;;13.07;2.90;;;;;;;;;;5045142;28;20037;-70
2023/07/12 10:08:34;;;;;;;12.45;2.28;;;;;;;;;;5041118;28;20108;-70
2023/07/12 10:11:13;;;;;;;7.95;2.25;;;;;;;;;;5042340;28;20492;-69
2023/07/12 10:13:45;;;;;;;9.05;2.58;;;;;;;;;;5058010;28;20116;-69
2023/07/12 10:16:16;;;;;;;8.65;2.22;;;;;;;;;;5042191;28;20143;-71
2023/07/12 10:18:43;;;;;;;11.65;2.60;;;;;;;;;;5044745;28;20033;-68
2023/07/12 10:21:13;;;;;;;8.38;2.28;;;;;;;;;;5045514;28;20143;-70
2023/07/12 10:23:44;;;;;;;7.68;2.75;;;;;;;;;;5044988;28;20044;-69
2023/07/12 10:26:13;;;;;;;11.07;2.97;;;;;;;;;;5042251;28;20036;-69
2023/07/12 10:28:39;;;;;;;10.25;2.70;;;;;;;;;;5061002;28;20047;-69
2023/07/12 10:31:10;;;;;;;7.88;2.38;;;;;;;;;;5057415;28;20140;-69
2023/07/12 10:33:40;;;;;;;10.75;2.63;;;;;;;;;;5051340;28;20045;-69
2023/07/12 10:36:08;;;;;;;9.27;2.33;;;;;;;;;;5069971;28;20033;-69
2023/07/12 10:38:34;;;;;;;9.93;2.50;;;;;;;;;;5058177;28;20060;-69
2023/07/12 10:41:06;;;;;;;11.57;3.13;;;;;;;;;;5047963;28;20128;-70
2023/07/12 10:43:34;;;;;;;12.68;3.00;;;;;;;;;;5045116;28;20036;-69
2023/07/12 10:46:07;;;;;;;7.13;2.35;;;;;;;;;;5045602;28;20518;-69
2023/07/12 10:48:33;;;;;;;8.90;2.60;;;;;;;;;;5046572;28;21394;-70
2023/07/12 10:51:16;;;;;;;11.18;2.40;;;;;;;;;;5046479;28;20025;-70
2023/07/12 10:53:49;;;;;;;8.27;2.40;;;;;;;;;;5044700;28;20028;-69
2023/07/12 10:56:17;;;;;;;11.52;2.53;;;;;;;;;;5051839;28;20029;-69
2023/07/12 10:58:48;;;;;;;7.95;2.33;;;;;;;;;;5057059;28;20036;-70
2023/07/12 11:01:33;;;;;;;8.95;2.58;;;;;;;;;;5052423;28;20075;-70
2023/07/12 11:04:06;;;;;;;7.57;2.10;;;;;;;;;;5062155;28;20033;-69
2023/07/12 11:06:33;;;;;;;9.70;2.30;;;;;;;;;;5053177;28;20054;-69
2023/07/12 11:08:59;;;;;;;8.77;2.33;;;;;;;;;;5049463;28;20112;-69
2023/07/12 11:11:30;;;;;;;9.02;1.92;;;;;;;;;;5050482;28;20029;-70
2023/07/12 11:14:13;;;;;;;7.25;2.63;;;;;;;;;;5047128;28;20112;-69
2023/07/12 11:16:48;;;;;;;28.90;2.53;;;;;;;;;;5049972;28;20060;-69
2023/07/12 11:19:33;;;;;;;11.02;2.63;;;;;;;;;;5049912;28;20362;-69
2023/07/12 11:22:02;;;;;;;10.00;2.45;;;;;;;;;;5051598;28;20024;-69
2023/07/12 11:24:36;;;;;;;8.10;2.25;;;;;;;;;;5062371;28;20077;-70
2023/07/12 11:27:02;;;;;;;6.68;1.95;;;;;;;;;;5048195;28;20033;-70
2023/07/12 11:29:31;;;;;;;6.97;2.58;;;;;;;;;;5060960;28;20127;-70
2023/07/12 11:32:18;;;;;;;8.00;2.30;;;;;;;;;;5042985;28;20045;-69
2023/07/12 11:34:45;;;;;;;6.82;2.28;;;;;;;;;;5059730;28;20024;-69
2023/07/12 11:37:22;;;;;;;7.80;2.38;;;;;;;;;;5056441;28;20159;-69
2023/07/12 11:39:48;;;;;;;8.65;2.55;;;;;;;;;;5052463;28;20107;-69
2023/07/12 11:42:27;;;;;;;6.60;1.90;;;;;;;;;;5047347;28;20048;-69
2023/07/12 11:45:06;;;;;;;10.05;2.70;;;;;;;;;;5044689;28;20038;-70
2023/07/12 11:47:32;;;;;;;13.07;3.15;;;;;;;;;;5065760;28;20029;-70
2023/07/12 11:50:00;;;;;;;10.32;3.22;;;;;;;;;;5047341;28;20116;-70
2023/07/12 11:52:27;;;;;;;9.35;2.90;;;;;;;;;;5062885;28;20086;-70
2023/07/12 11:54:53;;;;;;;10.45;2.65;;;;;;;;;;5052387;28;20045;-70
2023/07/12 11:57:20;;;;;;;8.45;2.53;;;;;;;;;;5053822;28;20033;-70
2023/07/12 11:59:47;;;;;;;12.05;3.03;;;;;;;;;;5052734;28;20024;-69
2023/07/12 12:02:21;;;;;;;11.45;3.80;;;;;;;;;;5049784;28;20075;-70
2023/07/12 12:04:50;;;;;;;7.88;3.35;;;;;;;;;;5048841;28;20028;-69
2023/07/12 12:07:34;;;;;;;12.27;3.30;;;;;;;;;;5055807;28;20043;-70
2023/07/12 12:10:00;;;;;;;9.52;3.58;;;;;;;;;;5041577;28;20160;-71
2023/07/12 12:12:29;;;;;;;12.65;3.30;;;;;;;;;;5043691;28;20040;-71
2023/07/12 12:14:56;;;;;;;8.20;3.08;;;;;;;;;;5052346;28;20052;-70
2023/07/12 12:17:32;;;;;;;9.55;3.28;;;;;;;;;;5049851;28;20029;-70
2023/07/12 12:20:24;;;;;;;11.93;3.22;;;;;;;;;;5045036;28;20108;-70
2023/07/12 12:22:59;;;;;;;11.00;3.20;;;;;;;;;;5043415;28;20037;-70
2023/07/12 12:25:26;;;;;;;8.60;2.65;;;;;;;;;;5050463;28;20124;-69
2023/07/12 12:27:53;;;;;;;9.45;2.60;;;;;;;;;;5050871;28;20136;-69
2023/07/12 12:30:20;;;;;;;10.18;2.95;;;;;;;;;;5070685;28;20037;-69
2023/07/12 12:33:01;;;;;;;10.63;3.10;;;;;;;;;;5052505;28;20029;-69
2023/07/12 12:35:27;;;;;;;14.15;2.95;;;;;;;;;;5057152;28;20051;-69
2023/07/12 12:38:12;;;;;;;8.95;2.97;;;;;;;;;;5051194;28;20188;-70
2023/07/12 12:40:47;;;;;;;10.32;3.28;;;;;;;;;;5054576;28;20426;-69
2023/07/12 12:43:17;;;;;;;15.32;3.00;;;;;;;;;;5057507;28;20068;-71
2023/07/12 12:45:43;;;;;;;9.25;2.90;;;;;;;;;;5056775;28;20025;-69
2023/07/12 12:48:13;;;;;;;7.07;2.47;;;;;;;;;;5050065;28;20043;-70
2023/07/12 12:50:39;;;;;;;8.48;2.47;;;;;;;;;;5075300;28;20032;-70
2023/07/12 12:53:10;;;;;;;9.60;2.92;;;;;;;;;;5058483;28;20041;-69
2023/07/12 12:55:37;;;;;;;6.55;2.45;;;;;;;;;;5050885;28;20053;-69
2023/07/12 12:58:03;;;;;;;7.00;2.22;;;;;;;;;;5047968;28;20051;-70
2023/07/12 13:00:30;;;;;;;5.88;1.60;;;;;;;;;;5059587;28;20032;-69
2023/07/12 13:02:56;;;;;;;5.38;1.55;;;;;;;;;;5054468;28;20083;-70
2023/07/12 13:05:23;;;;;;;7.18;1.63;;;;;;;;;;5049311;28;20039;-72
2023/07/12 13:07:49;;;;;;;4.97;1.90;;;;;;;;;;5048440;28;20033;-71
2023/07/12 13:10:17;;;;;;;6.07;1.88;;;;;;;;;;5047089;28;20853;-69
2023/07/12 13:12:43;;;;;;;8.43;1.58;;;;;;;;;;5047054;28;20036;-70
2023/07/12 13:15:18;;;;;;;7.20;1.30;;;;;;;;;;5047493;28;20037;-69
2023/07/12 13:17:45;;;;;;;4.55;1.25;;;;;;;;;;5058994;28;20037;-70
2023/07/12 13:20:15;;;;;;;6.55;1.40;;;;;;;;;;5077418;28;20119;-69
2023/07/12 13:22:42;;;;;;;5.63;1.17;;;;;;;;;;5050089;28;20064;-70
2023/07/12 13:25:09;;;;;;;4.63;1.10;;;;;;;;;;5048153;28;20029;-71
2023/07/12 13:27:36;;;;;;;4.93;1.35;;;;;;;;;;5054747;28;20128;-70
2023/07/12 13:30:04;;;;;;;4.75;1.05;;;;;;;;;;5051875;28;20123;-70
2023/07/12 13:32:30;;;;;;;4.88;1.13;;;;;;;;;;5069940;28;20033;-70
2023/07/12 13:34:58;;;;;;;6.22;1.20;;;;;;;;;;5055282;28;20036;-71
2023/07/12 13:37:28;;;;;;;6.47;1.40;;;;;;;;;;5045769;28;20056;-71
2023/07/12 13:39:55;;;;;;;4.43;1.30;;;;;;;;;;5053826;28;20025;-68
2023/07/12 13:42:21;;;;;;;5.75;1.40;;;;;;;;;;5056985;28;20144;-70
2023/07/12 13:44:47;;;;;;;4.57;1.17;;;;;;;;;;5045560;28;20229;-70
2023/07/12 13:47:19;;;;;;;4.38;1.23;;;;;;;;;;5070281;28;20037;-69
2023/07/12 13:49:45;;;;;;;2.95;1.10;;;;;;;;;;5059732;28;20040;-69
2023/07/12 13:52:15;;;;;;;5.22;1.42;;;;;;;;;;5042324;28;20048;-70
2023/07/12 13:54:42;;;;;;;8.18;1.70;;;;;;;;;;5052580;28;20036;-70
2023/07/12 13:57:10;;;;;;;7.63;1.80;;;;;;;;;;5053110;28;20047;-70
2023/07/12 13:59:37;;;;;;;7.68;1.85;;;;;;;;;;5052668;28;20072;-70
2023/07/12 14:02:16;;;;;;;5.57;1.63;;;;;;;;;;5049172;28;20044;-70
2023/07/12 14:04:42;;;;;;;5.82;1.67;;;;;;;;;;5047476;28;20094;-70
2023/07/12 14:07:10;;;;;;;5.85;1.77;;;;;;;;;;5049759;28;20118;-70
2023/07/12 14:09:37;;;;;;;5.20;1.35;;;;;;;;;;5050303;28;20103;-70
2023/07/12 14:12:04;;;;;;;4.82;1.48;;;;;;;;;;5055814;28;20060;-70
2023/07/12 14:14:30;;;;;;;10.43;2.10;;;;;;;;;;5049899;28;20045;-71
2023/07/12 14:16:56;;;;;;;5.72;1.40;;;;;;;;;;5051310;28;20045;-70
2023/07/12 14:19:22;;;;;;;2.88;1.02;;;;;;;;;;5065539;28;20037;-69
2023/07/12 14:21:48;;;;;;;2.50;1.23;;;;;;;;;;5044273;28;20117;-69
2023/07/12 14:24:15;;;;;;;2.83;1.35;;;;;;;;;;5045711;28;20036;-70
2023/07/12 14:26:41;;;;;;;2.78;1.30;;;;;;;;;;5046719;28;20067;-69
2023/07/12 14:29:07;;;;;;;2.28;1.13;;;;;;;;;;5050352;28;20065;-69
2023/07/12 14:31:35;;;;;;;6.00;1.42;;;;;;;;;;5049782;28;20032;-70
2023/07/12 14:34:02;;;;;;;4.85;1.50;;;;;;;;;;5045437;28;20029;-70
2023/07/12 14:36:28;;;;;;;5.00;1.20;;;;;;;;;;5051726;28;20079;-70